sensor_id;sensor_type;location;lat;lon;timestamp;P1;durP1;ratioP1;P2;durP2;ratioP2
12302;SDS011;6214;48.012;7.862;2023-05-21T00:00:29;8.60;;;6.38;;
12302;SDS011;6214;48.012;7.862;2023-05-21T00:02:56;8.35;;;6.40;;
12302;SDS011;6214;48.012;7.862;2023-05-21T00:05:24;8.30;;;6.13;;
12302;SDS011;6214;48.012;7.862;2023-05-21T00:07:51;9.43;;;6.40;;
12302;SDS011;6214;48.012;7.862;2023-05-21T00:10:20;9.68;;;6.80;;
12302;SDS011;6214;48.012;7.862;2023-05-21T00:12:47;7.90;;;6.60;;
12302;SDS011;6214;48.012;7.862;2023-05-21T00:15:14;8.10;;;6.35;;
12302;SDS011;6214;48.012;7.862;2023-05-21T00:17:41;9.45;;;6.53;;
12302;SDS011;6214;48.012;7.862;2023-05-21T00:20:09;8.87;;;6.77;;
12302;SDS011;6214;48.012;7.862;2023-05-21T00:22:36;8.40;;;6.53;;
12302;SDS011;6214;48.012;7.862;2023-05-21T00:25:03;9.93;;;6.63;;
12302;SDS011;6214;48.012;7.862;2023-05-21T00:27:30;9.48;;;6.80;;
12302;SDS011;6214;48.012;7.862;2023-05-21T00:29:57;9.00;;;6.60;;
12302;SDS011;6214;48.012;7.862;2023-05-21T00:32:24;8.95;;;6.70;;
12302;SDS011;6214;48.012;7.862;2023-05-21T00:34:51;7.80;;;6.10;;
12302;SDS011;6214;48.012;7.862;2023-05-21T00:37:19;8.23;;;6.50;;
12302;SDS011;6214;48.012;7.862;2023-05-21T00:39:47;8.00;;;6.57;;
12302;SDS011;6214;48.012;7.862;2023-05-21T00:42:14;8.52;;;6.40;;
12302;SDS011;6214;48.012;7.862;2023-05-21T00:44:43;8.48;;;6.70;;
12302;SDS011;6214;48.012;7.862;2023-05-21T00:47:13;8.95;;;6.70;;
12302;SDS011;6214;48.012;7.862;2023-05-21T00:49:43;8.80;;;7.10;;
12302;SDS011;6214;48.012;7.862;2023-05-21T00:52:10;8.88;;;6.90;;
12302;SDS011;6214;48.012;7.862;2023-05-21T00:54:37;8.90;;;6.07;;
12302;SDS011;6214;48.012;7.862;2023-05-21T00:57:05;9.30;;;7.43;;
12302;SDS011;6214;48.012;7.862;2023-05-21T00:59:32;8.10;;;6.97;;
12302;SDS011;6214;48.012;7.862;2023-05-21T01:01:59;8.05;;;6.60;;
12302;SDS011;6214;48.012;7.862;2023-05-21T01:04:29;10.02;;;6.97;;
12302;SDS011;6214;48.012;7.862;2023-05-21T01:06:57;7.95;;;6.80;;
12302;SDS011;6214;48.012;7.862;2023-05-21T01:09:25;9.13;;;7.70;;
12302;SDS011;6214;48.012;7.862;2023-05-21T01:11:52;8.75;;;7.25;;
12302;SDS011;6214;48.012;7.862;2023-05-21T01:14:21;9.27;;;7.82;;
12302;SDS011;6214;48.012;7.862;2023-05-21T01:16:49;9.30;;;7.28;;
12302;SDS011;6214;48.012;7.862;2023-05-21T01:19:18;9.17;;;7.63;;
12302;SDS011;6214;48.012;7.862;2023-05-21T01:21:56;9.55;;;7.70;;
12302;SDS011;6214;48.012;7.862;2023-05-21T01:24:35;9.33;;;7.57;;
12302;SDS011;6214;48.012;7.862;2023-05-21T01:27:02;8.93;;;7.60;;
12302;SDS011;6214;48.012;7.862;2023-05-21T01:29:33;9.82;;;7.90;;
12302;SDS011;6214;48.012;7.862;2023-05-21T01:34:33;9.45;;;8.45;;
12302;SDS011;6214;48.012;7.862;2023-05-21T01:37:21;10.07;;;8.48;;
12302;SDS011;6214;48.012;7.862;2023-05-21T01:39:55;10.00;;;8.10;;
12302;SDS011;6214;48.012;7.862;2023-05-21T01:42:34;9.88;;;8.63;;
12302;SDS011;6214;48.012;7.862;2023-05-21T01:45:04;9.85;;;8.50;;
12302;SDS011;6214;48.012;7.862;2023-05-21T01:47:33;9.40;;;8.32;;
12302;SDS011;6214;48.012;7.862;2023-05-21T01:50:03;11.30;;;8.85;;
12302;SDS011;6214;48.012;7.862;2023-05-21T01:52:30;10.10;;;8.80;;
12302;SDS011;6214;48.012;7.862;2023-05-21T01:54:58;10.70;;;9.20;;
12302;SDS011;6214;48.012;7.862;2023-05-21T01:57:25;11.13;;;8.52;;
12302;SDS011;6214;48.012;7.862;2023-05-21T01:59:52;10.35;;;8.95;;
12302;SDS011;6214;48.012;7.862;2023-05-21T02:02:21;10.50;;;8.60;;
12302;SDS011;6214;48.012;7.862;2023-05-21T02:04:48;11.10;;;9.20;;
12302;SDS011;6214;48.012;7.862;2023-05-21T02:07:16;9.82;;;8.27;;
12302;SDS011;6214;48.012;7.862;2023-05-21T02:09:44;10.38;;;8.70;;
12302;SDS011;6214;48.012;7.862;2023-05-21T02:12:11;11.10;;;9.30;;
12302;SDS011;6214;48.012;7.862;2023-05-21T02:14:38;11.00;;;9.80;;
12302;SDS011;6214;48.012;7.862;2023-05-21T02:17:05;10.80;;;8.80;;
12302;SDS011;6214;48.012;7.862;2023-05-21T02:19:33;11.35;;;9.07;;
12302;SDS011;6214;48.012;7.862;2023-05-21T02:22:00;10.43;;;9.33;;
12302;SDS011;6214;48.012;7.862;2023-05-21T02:24:27;10.83;;;9.73;;
12302;SDS011;6214;48.012;7.862;2023-05-21T02:26:54;11.00;;;9.67;;
12302;SDS011;6214;48.012;7.862;2023-05-21T02:29:21;11.30;;;9.93;;
12302;SDS011;6214;48.012;7.862;2023-05-21T02:31:48;11.30;;;10.00;;
12302;SDS011;6214;48.012;7.862;2023-05-21T02:34:18;11.00;;;9.80;;
12302;SDS011;6214;48.012;7.862;2023-05-21T02:36:48;12.20;;;9.70;;
12302;SDS011;6214;48.012;7.862;2023-05-21T02:39:18;11.50;;;10.10;;
12302;SDS011;6214;48.012;7.862;2023-05-21T02:41:45;11.50;;;10.00;;
12302;SDS011;6214;48.012;7.862;2023-05-21T02:44:12;13.00;;;10.30;;
12302;SDS011;6214;48.012;7.862;2023-05-21T02:46:39;11.55;;;10.20;;
12302;SDS011;6214;48.012;7.862;2023-05-21T02:49:06;11.90;;;9.63;;
12302;SDS011;6214;48.012;7.862;2023-05-21T02:51:33;11.48;;;9.63;;
12302;SDS011;6214;48.012;7.862;2023-05-21T02:54:00;12.57;;;10.88;;
12302;SDS011;6214;48.012;7.862;2023-05-21T02:56:27;11.40;;;10.20;;
12302;SDS011;6214;48.012;7.862;2023-05-21T02:58:54;11.77;;;10.50;;
12302;SDS011;6214;48.012;7.862;2023-05-21T03:01:21;12.48;;;11.18;;
12302;SDS011;6214;48.012;7.862;2023-05-21T03:03:49;11.55;;;9.88;;
12302;SDS011;6214;48.012;7.862;2023-05-21T03:06:16;11.20;;;10.00;;
12302;SDS011;6214;48.012;7.862;2023-05-21T03:08:43;11.20;;;10.00;;
12302;SDS011;6214;48.012;7.862;2023-05-21T03:11:10;11.70;;;10.15;;
12302;SDS011;6214;48.012;7.862;2023-05-21T03:13:37;12.15;;;10.70;;
12302;SDS011;6214;48.012;7.862;2023-05-21T03:16:04;11.55;;;10.27;;
12302;SDS011;6214;48.012;7.862;2023-05-21T03:18:31;12.80;;;11.38;;
12302;SDS011;6214;48.012;7.862;2023-05-21T03:20:58;13.27;;;11.25;;
12302;SDS011;6214;48.012;7.862;2023-05-21T03:23:25;12.18;;;10.60;;
12302;SDS011;6214;48.012;7.862;2023-05-21T03:25:52;12.50;;;10.63;;
12302;SDS011;6214;48.012;7.862;2023-05-21T03:28:19;12.07;;;10.50;;
12302;SDS011;6214;48.012;7.862;2023-05-21T03:30:47;11.93;;;10.48;;
12302;SDS011;6214;48.012;7.862;2023-05-21T03:33:17;13.70;;;11.35;;
12302;SDS011;6214;48.012;7.862;2023-05-21T03:35:45;12.30;;;10.87;;
12302;SDS011;6214;48.012;7.862;2023-05-21T03:38:12;11.97;;;10.67;;
12302;SDS011;6214;48.012;7.862;2023-05-21T03:40:39;12.80;;;11.10;;
12302;SDS011;6214;48.012;7.862;2023-05-21T03:43:06;12.48;;;11.10;;
12302;SDS011;6214;48.012;7.862;2023-05-21T03:45:33;13.00;;;11.60;;
12302;SDS011;6214;48.012;7.862;2023-05-21T03:48:01;13.25;;;11.35;;
12302;SDS011;6214;48.012;7.862;2023-05-21T03:50:28;13.68;;;11.70;;
12302;SDS011;6214;48.012;7.862;2023-05-21T03:52:55;12.57;;;11.05;;
12302;SDS011;6214;48.012;7.862;2023-05-21T03:55:22;12.40;;;11.10;;
12302;SDS011;6214;48.012;7.862;2023-05-21T03:57:49;12.38;;;11.07;;
12302;SDS011;6214;48.012;7.862;2023-05-21T04:00:17;12.80;;;11.50;;
12302;SDS011;6214;48.012;7.862;2023-05-21T04:02:44;12.85;;;11.50;;
12302;SDS011;6214;48.012;7.862;2023-05-21T04:05:11;12.38;;;11.07;;
12302;SDS011;6214;48.012;7.862;2023-05-21T04:07:38;12.50;;;11.20;;
12302;SDS011;6214;48.012;7.862;2023-05-21T04:10:05;13.70;;;12.30;;
12302;SDS011;6214;48.012;7.862;2023-05-21T04:12:32;12.57;;;11.27;;
12302;SDS011;6214;48.012;7.862;2023-05-21T04:14:59;14.00;;;11.80;;
12302;SDS011;6214;48.012;7.862;2023-05-21T04:17:27;13.30;;;11.90;;
12302;SDS011;6214;48.012;7.862;2023-05-21T04:19:55;13.40;;;11.80;;
12302;SDS011;6214;48.012;7.862;2023-05-21T04:22:22;14.23;;;12.00;;
12302;SDS011;6214;48.012;7.862;2023-05-21T04:24:52;14.15;;;11.60;;
12302;SDS011;6214;48.012;7.862;2023-05-21T04:27:20;14.32;;;12.82;;
12302;SDS011;6214;48.012;7.862;2023-05-21T04:29:49;14.55;;;11.60;;
12302;SDS011;6214;48.012;7.862;2023-05-21T04:32:16;13.40;;;12.00;;
12302;SDS011;6214;48.012;7.862;2023-05-21T04:34:43;13.93;;;12.47;;
12302;SDS011;6214;48.012;7.862;2023-05-21T04:37:10;13.30;;;12.00;;
12302;SDS011;6214;48.012;7.862;2023-05-21T04:39:37;13.85;;;12.35;;
12302;SDS011;6214;48.012;7.862;2023-05-21T04:42:06;14.05;;;12.63;;
12302;SDS011;6214;48.012;7.862;2023-05-21T04:44:37;13.98;;;12.48;;
12302;SDS011;6214;48.012;7.862;2023-05-21T04:47:05;14.05;;;12.55;;
12302;SDS011;6214;48.012;7.862;2023-05-21T04:49:33;14.13;;;12.50;;
12302;SDS011;6214;48.012;7.862;2023-05-21T04:52:00;13.57;;;12.18;;
12302;SDS011;6214;48.012;7.862;2023-05-21T04:54:28;14.23;;;12.10;;
12302;SDS011;6214;48.012;7.862;2023-05-21T04:56:55;13.75;;;12.35;;
12302;SDS011;6214;48.012;7.862;2023-05-21T04:59:23;12.77;;;11.48;;
12302;SDS011;6214;48.012;7.862;2023-05-21T05:01:50;13.40;;;12.00;;
12302;SDS011;6214;48.012;7.862;2023-05-21T05:04:18;13.98;;;11.98;;
12302;SDS011;6214;48.012;7.862;2023-05-21T05:06:45;13.13;;;11.73;;
12302;SDS011;6214;48.012;7.862;2023-05-21T05:09:12;13.25;;;11.57;;
12302;SDS011;6214;48.012;7.862;2023-05-21T05:11:39;13.30;;;11.90;;
12302;SDS011;6214;48.012;7.862;2023-05-21T05:14:06;13.32;;;11.88;;
12302;SDS011;6214;48.012;7.862;2023-05-21T05:16:33;13.93;;;12.43;;
12302;SDS011;6214;48.012;7.862;2023-05-21T05:19:01;14.10;;;12.48;;
12302;SDS011;6214;48.012;7.862;2023-05-21T05:21:28;14.10;;;12.60;;
12302;SDS011;6214;48.012;7.862;2023-05-21T05:23:56;14.48;;;12.45;;
12302;SDS011;6214;48.012;7.862;2023-05-21T05:26:23;15.07;;;12.90;;
12302;SDS011;6214;48.012;7.862;2023-05-21T05:28:50;15.10;;;13.50;;
12302;SDS011;6214;48.012;7.862;2023-05-21T05:31:18;14.20;;;12.70;;
12302;SDS011;6214;48.012;7.862;2023-05-21T05:33:45;14.60;;;12.70;;
12302;SDS011;6214;48.012;7.862;2023-05-21T05:36:12;14.15;;;12.63;;
12302;SDS011;6214;48.012;7.862;2023-05-21T05:38:39;13.93;;;12.43;;
12302;SDS011;6214;48.012;7.862;2023-05-21T05:41:06;14.55;;;13.05;;
12302;SDS011;6214;48.012;7.862;2023-05-21T05:43:33;14.02;;;12.52;;
12302;SDS011;6214;48.012;7.862;2023-05-21T05:46:00;16.02;;;14.43;;
12302;SDS011;6214;48.012;7.862;2023-05-21T05:48:27;15.00;;;13.40;;
12302;SDS011;6214;48.012;7.862;2023-05-21T05:50:55;17.73;;;15.48;;
12302;SDS011;6214;48.012;7.862;2023-05-21T05:53:22;16.88;;;15.07;;
12302;SDS011;6214;48.012;7.862;2023-05-21T05:55:49;17.17;;;15.38;;
12302;SDS011;6214;48.012;7.862;2023-05-21T05:58:16;19.23;;;15.40;;
12302;SDS011;6214;48.012;7.862;2023-05-21T06:00:43;17.05;;;15.25;;
12302;SDS011;6214;48.012;7.862;2023-05-21T06:03:10;16.92;;;15.13;;
12302;SDS011;6214;48.012;7.862;2023-05-21T06:05:38;17.30;;;15.50;;
12302;SDS011;6214;48.012;7.862;2023-05-21T06:08:05;16.80;;;15.00;;
12302;SDS011;6214;48.012;7.862;2023-05-21T06:10:32;16.83;;;14.73;;
12302;SDS011;6214;48.012;7.862;2023-05-21T06:12:59;16.37;;;14.60;;
12302;SDS011;6214;48.012;7.862;2023-05-21T06:15:26;16.92;;;15.13;;
12302;SDS011;6214;48.012;7.862;2023-05-21T06:17:53;16.20;;;14.50;;
12302;SDS011;6214;48.012;7.862;2023-05-21T06:20:21;16.75;;;13.75;;
12302;SDS011;6214;48.012;7.862;2023-05-21T06:22:48;15.40;;;13.68;;
12302;SDS011;6214;48.012;7.862;2023-05-21T06:25:15;16.98;;;14.77;;
12302;SDS011;6214;48.012;7.862;2023-05-21T06:27:42;16.42;;;14.73;;
12302;SDS011;6214;48.012;7.862;2023-05-21T06:30:09;15.00;;;13.40;;
12302;SDS011;6214;48.012;7.862;2023-05-21T06:32:36;17.00;;;15.20;;
12302;SDS011;6214;48.012;7.862;2023-05-21T06:35:03;17.73;;;15.10;;
12302;SDS011;6214;48.012;7.862;2023-05-21T06:37:31;15.88;;;14.18;;
12302;SDS011;6214;48.012;7.862;2023-05-21T06:39:58;16.90;;;15.10;;
12302;SDS011;6214;48.012;7.862;2023-05-21T06:42:25;16.08;;;14.25;;
12302;SDS011;6214;48.012;7.862;2023-05-21T06:44:52;17.00;;;15.20;;
12302;SDS011;6214;48.012;7.862;2023-05-21T06:47:19;17.03;;;15.30;;
12302;SDS011;6214;48.012;7.862;2023-05-21T06:49:47;18.00;;;15.82;;
12302;SDS011;6214;48.012;7.862;2023-05-21T06:52:14;18.52;;;16.52;;
12302;SDS011;6214;48.012;7.862;2023-05-21T06:54:41;17.52;;;15.70;;
12302;SDS011;6214;48.012;7.862;2023-05-21T06:57:08;17.92;;;16.00;;
12302;SDS011;6214;48.012;7.862;2023-05-21T06:59:35;18.40;;;16.50;;
12302;SDS011;6214;48.012;7.862;2023-05-21T07:02:02;18.63;;;16.73;;
12302;SDS011;6214;48.012;7.862;2023-05-21T07:04:30;18.67;;;16.77;;
12302;SDS011;6214;48.012;7.862;2023-05-21T07:06:57;17.45;;;15.63;;
12302;SDS011;6214;48.012;7.862;2023-05-21T07:09:24;18.10;;;16.30;;
12302;SDS011;6214;48.012;7.862;2023-05-21T07:11:51;18.23;;;16.02;;
12302;SDS011;6214;48.012;7.862;2023-05-21T07:14:18;18.15;;;16.27;;
12302;SDS011;6214;48.012;7.862;2023-05-21T07:16:45;17.63;;;15.60;;
12302;SDS011;6214;48.012;7.862;2023-05-21T07:19:13;16.95;;;15.15;;
12302;SDS011;6214;48.012;7.862;2023-05-21T07:21:40;16.55;;;14.85;;
12302;SDS011;6214;48.012;7.862;2023-05-21T07:24:07;16.70;;;15.00;;
12302;SDS011;6214;48.012;7.862;2023-05-21T07:26:34;16.10;;;14.40;;
12302;SDS011;6214;48.012;7.862;2023-05-21T07:29:02;16.23;;;14.52;;
12302;SDS011;6214;48.012;7.862;2023-05-21T07:31:29;16.77;;;15.07;;
12302;SDS011;6214;48.012;7.862;2023-05-21T07:33:56;17.40;;;15.70;;
12302;SDS011;6214;48.012;7.862;2023-05-21T07:36:23;16.40;;;14.57;;
12302;SDS011;6214;48.012;7.862;2023-05-21T07:38:51;16.70;;;15.00;;
12302;SDS011;6214;48.012;7.862;2023-05-21T07:41:19;16.17;;;14.60;;
12302;SDS011;6214;48.012;7.862;2023-05-21T07:43:47;16.60;;;15.00;;
12302;SDS011;6214;48.012;7.862;2023-05-21T07:46:14;15.88;;;14.35;;
12302;SDS011;6214;48.012;7.862;2023-05-21T07:48:42;16.45;;;14.85;;
12302;SDS011;6214;48.012;7.862;2023-05-21T07:51:09;16.30;;;14.70;;
12302;SDS011;6214;48.012;7.862;2023-05-21T07:53:37;15.30;;;13.70;;
12302;SDS011;6214;48.012;7.862;2023-05-21T07:56:04;16.02;;;14.43;;
12302;SDS011;6214;48.012;7.862;2023-05-21T07:58:32;14.98;;;13.57;;
12302;SDS011;6214;48.012;7.862;2023-05-21T08:01:00;14.50;;;13.10;;
12302;SDS011;6214;48.012;7.862;2023-05-21T08:03:28;15.00;;;13.50;;
12302;SDS011;6214;48.012;7.862;2023-05-21T08:05:58;14.40;;;13.00;;
12302;SDS011;6214;48.012;7.862;2023-05-21T08:08:25;15.38;;;13.88;;
12302;SDS011;6214;48.012;7.862;2023-05-21T08:10:52;14.75;;;13.15;;
12302;SDS011;6214;48.012;7.862;2023-05-21T08:13:20;14.00;;;12.60;;
12302;SDS011;6214;48.012;7.862;2023-05-21T08:15:47;14.43;;;13.02;;
12302;SDS011;6214;48.012;7.862;2023-05-21T08:18:18;13.90;;;12.40;;
12302;SDS011;6214;48.012;7.862;2023-05-21T08:20:45;13.90;;;12.50;;
12302;SDS011;6214;48.012;7.862;2023-05-21T08:23:13;13.38;;;12.07;;
12302;SDS011;6214;48.012;7.862;2023-05-21T08:25:41;13.80;;;12.50;;
12302;SDS011;6214;48.012;7.862;2023-05-21T08:28:08;12.73;;;11.40;;
12302;SDS011;6214;48.012;7.862;2023-05-21T08:30:35;14.03;;;12.63;;
12302;SDS011;6214;48.012;7.862;2023-05-21T08:33:02;13.67;;;12.27;;
12302;SDS011;6214;48.012;7.862;2023-05-21T08:35:29;13.60;;;12.10;;
12302;SDS011;6214;48.012;7.862;2023-05-21T08:37:57;13.93;;;12.43;;
12302;SDS011;6214;48.012;7.862;2023-05-21T08:40:25;13.73;;;12.43;;
12302;SDS011;6214;48.012;7.862;2023-05-21T08:42:52;12.98;;;11.70;;
12302;SDS011;6214;48.012;7.862;2023-05-21T08:45:19;13.70;;;12.40;;
12302;SDS011;6214;48.012;7.862;2023-05-21T08:47:48;14.63;;;13.00;;
12302;SDS011;6214;48.012;7.862;2023-05-21T08:50:26;14.40;;;13.00;;
12302;SDS011;6214;48.012;7.862;2023-05-21T08:52:54;13.43;;;12.13;;
12302;SDS011;6214;48.012;7.862;2023-05-21T08:55:21;13.73;;;12.32;;
12302;SDS011;6214;48.012;7.862;2023-05-21T08:57:49;14.45;;;12.95;;
12302;SDS011;6214;48.012;7.862;2023-05-21T09:00:20;14.60;;;13.10;;
12302;SDS011;6214;48.012;7.862;2023-05-21T09:02:47;12.48;;;11.27;;
12302;SDS011;6214;48.012;7.862;2023-05-21T09:05:14;13.65;;;12.35;;
12302;SDS011;6214;48.012;7.862;2023-05-21T09:07:46;14.40;;;13.00;;
12302;SDS011;6214;48.012;7.862;2023-05-21T09:10:18;13.65;;;12.25;;
12302;SDS011;6214;48.012;7.862;2023-05-21T09:12:49;13.75;;;12.35;;
12302;SDS011;6214;48.012;7.862;2023-05-21T09:15:16;14.48;;;13.18;;
12302;SDS011;6214;48.012;7.862;2023-05-21T09:17:47;13.90;;;12.50;;
12302;SDS011;6214;48.012;7.862;2023-05-21T09:20:14;14.02;;;12.65;;
12302;SDS011;6214;48.012;7.862;2023-05-21T09:22:42;13.50;;;12.20;;
12302;SDS011;6214;48.012;7.862;2023-05-21T09:25:12;13.52;;;12.23;;
12302;SDS011;6214;48.012;7.862;2023-05-21T09:27:41;15.20;;;13.60;;
12302;SDS011;6214;48.012;7.862;2023-05-21T09:30:10;14.82;;;13.32;;
12302;SDS011;6214;48.012;7.862;2023-05-21T09:32:39;14.82;;;13.43;;
12302;SDS011;6214;48.012;7.862;2023-05-21T09:35:07;15.57;;;14.07;;
12302;SDS011;6214;48.012;7.862;2023-05-21T09:37:42;14.48;;;13.07;;
12302;SDS011;6214;48.012;7.862;2023-05-21T09:40:13;14.20;;;12.80;;
12302;SDS011;6214;48.012;7.862;2023-05-21T09:42:51;14.63;;;13.23;;
12302;SDS011;6214;48.012;7.862;2023-05-21T09:45:23;15.10;;;13.50;;
12302;SDS011;6214;48.012;7.862;2023-05-21T09:47:52;13.80;;;12.50;;
12302;SDS011;6214;48.012;7.862;2023-05-21T09:52:54;13.70;;;12.40;;
12302;SDS011;6214;48.012;7.862;2023-05-21T09:55:22;15.10;;;13.60;;
12302;SDS011;6214;48.012;7.862;2023-05-21T09:57:51;14.37;;;12.87;;
12302;SDS011;6214;48.012;7.862;2023-05-21T10:00:19;14.32;;;12.93;;
12302;SDS011;6214;48.012;7.862;2023-05-21T10:02:54;14.75;;;13.32;;
12302;SDS011;6214;48.012;7.862;2023-05-21T10:05:26;15.15;;;13.55;;
12302;SDS011;6214;48.012;7.862;2023-05-21T10:07:58;14.30;;;12.90;;
12302;SDS011;6214;48.012;7.862;2023-05-21T10:10:27;15.30;;;13.80;;
12302;SDS011;6214;48.012;7.862;2023-05-21T10:13:05;13.73;;;12.43;;
12302;SDS011;6214;48.012;7.862;2023-05-21T10:15:37;14.27;;;12.77;;
12302;SDS011;6214;48.012;7.862;2023-05-21T10:18:08;13.23;;;11.93;;
12302;SDS011;6214;48.012;7.862;2023-05-21T10:20:37;14.50;;;13.10;;
12302;SDS011;6214;48.012;7.862;2023-05-21T10:23:05;13.77;;;12.38;;
12302;SDS011;6214;48.012;7.862;2023-05-21T10:25:33;14.13;;;12.80;;
12302;SDS011;6214;48.012;7.862;2023-05-21T10:28:01;15.02;;;13.43;;
12302;SDS011;6214;48.012;7.862;2023-05-21T10:30:28;14.10;;;12.70;;
12302;SDS011;6214;48.012;7.862;2023-05-21T10:32:56;14.20;;;12.80;;
12302;SDS011;6214;48.012;7.862;2023-05-21T10:35:25;14.88;;;13.38;;
12302;SDS011;6214;48.012;7.862;2023-05-21T10:37:53;14.85;;;13.35;;
12302;SDS011;6214;48.012;7.862;2023-05-21T10:40:22;17.02;;;15.32;;
12302;SDS011;6214;48.012;7.862;2023-05-21T10:48:42;14.60;;;13.10;;
12302;SDS011;6214;48.012;7.862;2023-05-21T10:51:21;15.60;;;13.90;;
12302;SDS011;6214;48.012;7.862;2023-05-21T10:59:02;14.30;;;12.90;;
12302;SDS011;6214;48.012;7.862;2023-05-21T11:01:38;14.43;;;12.93;;
12302;SDS011;6214;48.012;7.862;2023-05-21T11:04:07;14.83;;;13.43;;
12302;SDS011;6214;48.012;7.862;2023-05-21T11:06:35;13.65;;;12.30;;
12302;SDS011;6214;48.012;7.862;2023-05-21T11:09:11;13.60;;;12.20;;
12302;SDS011;6214;48.012;7.862;2023-05-21T11:11:40;15.70;;;14.15;;
12302;SDS011;6214;48.012;7.862;2023-05-21T11:17:10;16.73;;;14.98;;
12302;SDS011;6214;48.012;7.862;2023-05-21T11:19:43;15.15;;;13.73;;
12302;SDS011;6214;48.012;7.862;2023-05-21T11:24:47;15.40;;;13.90;;
12302;SDS011;6214;48.012;7.862;2023-05-21T11:30:03;14.88;;;13.38;;
12302;SDS011;6214;48.012;7.862;2023-05-21T11:32:31;14.27;;;12.77;;
12302;SDS011;6214;48.012;7.862;2023-05-21T11:35:01;13.90;;;12.50;;
12302;SDS011;6214;48.012;7.862;2023-05-21T11:37:29;14.00;;;12.60;;
12302;SDS011;6214;48.012;7.862;2023-05-21T11:42:49;14.18;;;12.70;;
12302;SDS011;6214;48.012;7.862;2023-05-21T11:45:21;13.35;;;11.95;;
12302;SDS011;6214;48.012;7.862;2023-05-21T11:47:58;14.45;;;12.95;;
12302;SDS011;6214;48.012;7.862;2023-05-21T11:50:26;14.13;;;12.30;;
12302;SDS011;6214;48.012;7.862;2023-05-21T11:52:56;13.73;;;12.10;;
12302;SDS011;6214;48.012;7.862;2023-05-21T11:55:25;15.25;;;13.75;;
12302;SDS011;6214;48.012;7.862;2023-05-21T11:57:53;14.40;;;13.00;;
12302;SDS011;6214;48.012;7.862;2023-05-21T12:00:20;14.23;;;12.82;;
12302;SDS011;6214;48.012;7.862;2023-05-21T12:02:51;13.77;;;12.48;;
12302;SDS011;6214;48.012;7.862;2023-05-21T12:05:19;13.70;;;12.30;;
12302;SDS011;6214;48.012;7.862;2023-05-21T12:07:47;13.90;;;12.50;;
12302;SDS011;6214;48.012;7.862;2023-05-21T12:10:20;13.27;;;11.97;;
12302;SDS011;6214;48.012;7.862;2023-05-21T12:12:49;13.75;;;12.35;;
12302;SDS011;6214;48.012;7.862;2023-05-21T12:15:22;13.80;;;12.43;;
12302;SDS011;6214;48.012;7.862;2023-05-21T12:17:51;13.43;;;11.98;;
12302;SDS011;6214;48.012;7.862;2023-05-21T12:20:19;12.85;;;11.65;;
12302;SDS011;6214;48.012;7.862;2023-05-21T12:22:47;13.55;;;12.15;;
12302;SDS011;6214;48.012;7.862;2023-05-21T12:25:18;13.02;;;11.82;;
12302;SDS011;6214;48.012;7.862;2023-05-21T12:27:47;12.80;;;11.50;;
12302;SDS011;6214;48.012;7.862;2023-05-21T12:30:18;13.20;;;11.90;;
12302;SDS011;6214;48.012;7.862;2023-05-21T12:32:47;13.38;;;12.07;;
12302;SDS011;6214;48.012;7.862;2023-05-21T12:35:21;13.45;;;12.05;;
12302;SDS011;6214;48.012;7.862;2023-05-21T12:37:50;13.15;;;11.85;;
12302;SDS011;6214;48.012;7.862;2023-05-21T12:40:17;13.35;;;12.05;;
12302;SDS011;6214;48.012;7.862;2023-05-21T12:42:45;13.10;;;11.80;;
12302;SDS011;6214;48.012;7.862;2023-05-21T12:45:12;13.20;;;11.90;;
12302;SDS011;6214;48.012;7.862;2023-05-21T12:47:40;12.73;;;11.45;;
12302;SDS011;6214;48.012;7.862;2023-05-21T12:50:07;12.80;;;11.50;;
12302;SDS011;6214;48.012;7.862;2023-05-21T12:52:38;12.52;;;11.32;;
12302;SDS011;6214;48.012;7.862;2023-05-21T12:55:06;12.40;;;11.20;;
12302;SDS011;6214;48.012;7.862;2023-05-21T12:57:36;13.17;;;11.70;;
12302;SDS011;6214;48.012;7.862;2023-05-21T13:00:07;13.15;;;11.85;;
12302;SDS011;6214;48.012;7.862;2023-05-21T13:02:42;12.70;;;11.40;;
12302;SDS011;6214;48.012;7.862;2023-05-21T13:05:14;13.30;;;11.90;;
12302;SDS011;6214;48.012;7.862;2023-05-21T13:07:45;13.23;;;11.82;;
12302;SDS011;6214;48.012;7.862;2023-05-21T13:10:14;13.02;;;11.82;;
12302;SDS011;6214;48.012;7.862;2023-05-21T13:12:44;12.02;;;10.77;;
12302;SDS011;6214;48.012;7.862;2023-05-21T13:15:11;14.80;;;11.10;;
12302;SDS011;6214;48.012;7.862;2023-05-21T13:17:39;12.45;;;11.15;;
12302;SDS011;6214;48.012;7.862;2023-05-21T13:22:44;11.95;;;10.75;;
12302;SDS011;6214;48.012;7.862;2023-05-21T13:25:13;12.13;;;10.45;;
12302;SDS011;6214;48.012;7.862;2023-05-21T13:27:42;12.00;;;10.80;;
12302;SDS011;6214;48.012;7.862;2023-05-21T13:30:10;11.93;;;10.73;;
12302;SDS011;6214;48.012;7.862;2023-05-21T13:32:37;12.52;;;11.32;;
12302;SDS011;6214;48.012;7.862;2023-05-21T13:35:06;12.57;;;11.02;;
12302;SDS011;6214;48.012;7.862;2023-05-21T13:37:33;11.93;;;10.73;;
12302;SDS011;6214;48.012;7.862;2023-05-21T13:40:04;12.40;;;11.20;;
12302;SDS011;6214;48.012;7.862;2023-05-21T13:42:33;12.40;;;11.10;;
12302;SDS011;6214;48.012;7.862;2023-05-21T13:45:00;12.27;;;10.90;;
12302;SDS011;6214;48.012;7.862;2023-05-21T13:47:27;12.80;;;11.50;;
12302;SDS011;6214;48.012;7.862;2023-05-21T13:49:55;12.10;;;10.90;;
12302;SDS011;6214;48.012;7.862;2023-05-21T13:52:22;12.77;;;11.48;;
12302;SDS011;6214;48.012;7.862;2023-05-21T13:54:49;11.85;;;10.65;;
12302;SDS011;6214;48.012;7.862;2023-05-21T13:57:16;12.40;;;11.10;;
12302;SDS011;6214;48.012;7.862;2023-05-21T13:59:43;12.98;;;11.68;;
12302;SDS011;6214;48.012;7.862;2023-05-21T14:02:10;12.65;;;10.90;;
12302;SDS011;6214;48.012;7.862;2023-05-21T14:04:38;12.65;;;11.20;;
12302;SDS011;6214;48.012;7.862;2023-05-21T14:07:05;12.20;;;10.93;;
12302;SDS011;6214;48.012;7.862;2023-05-21T14:09:33;11.60;;;10.40;;
12302;SDS011;6214;48.012;7.862;2023-05-21T14:12:00;11.48;;;10.30;;
12302;SDS011;6214;48.012;7.862;2023-05-21T14:14:30;11.52;;;10.07;;
12302;SDS011;6214;48.012;7.862;2023-05-21T14:16:57;11.50;;;10.40;;
12302;SDS011;6214;48.012;7.862;2023-05-21T14:19:25;11.43;;;10.23;;
12302;SDS011;6214;48.012;7.862;2023-05-21T14:21:52;12.40;;;11.20;;
12302;SDS011;6214;48.012;7.862;2023-05-21T14:24:20;11.03;;;9.93;;
12302;SDS011;6214;48.012;7.862;2023-05-21T14:26:47;11.50;;;10.30;;
12302;SDS011;6214;48.012;7.862;2023-05-21T14:29:14;11.60;;;10.40;;
12302;SDS011;6214;48.012;7.862;2023-05-21T14:31:41;11.60;;;10.40;;
12302;SDS011;6214;48.012;7.862;2023-05-21T14:34:08;11.55;;;10.20;;
12302;SDS011;6214;48.012;7.862;2023-05-21T14:36:36;12.57;;;10.77;;
12302;SDS011;6214;48.012;7.862;2023-05-21T14:39:03;11.70;;;10.50;;
12302;SDS011;6214;48.012;7.862;2023-05-21T14:41:30;11.60;;;10.40;;
12302;SDS011;6214;48.012;7.862;2023-05-21T14:43:57;11.25;;;10.15;;
12302;SDS011;6214;48.012;7.862;2023-05-21T14:46:24;12.25;;;11.05;;
12302;SDS011;6214;48.012;7.862;2023-05-21T14:48:51;11.88;;;10.57;;
12302;SDS011;6214;48.012;7.862;2023-05-21T14:51:20;11.55;;;10.35;;
12302;SDS011;6214;48.012;7.862;2023-05-21T14:53:48;11.45;;;10.30;;
12302;SDS011;6214;48.012;7.862;2023-05-21T14:56:15;11.77;;;10.32;;
12302;SDS011;6214;48.012;7.862;2023-05-21T14:58:42;11.23;;;10.02;;
12302;SDS011;6214;48.012;7.862;2023-05-21T15:01:09;12.43;;;10.65;;
12302;SDS011;6214;48.012;7.862;2023-05-21T15:03:37;11.40;;;9.80;;
12302;SDS011;6214;48.012;7.862;2023-05-21T15:06:04;11.10;;;9.90;;
12302;SDS011;6214;48.012;7.862;2023-05-21T15:08:31;11.57;;;9.75;;
12302;SDS011;6214;48.012;7.862;2023-05-21T15:10:58;11.20;;;10.10;;
12302;SDS011;6214;48.012;7.862;2023-05-21T15:13:25;11.52;;;10.32;;